Schedule Details


Flight Number: CTN444
Departure: Kastela (LDSP) at 12:30
Arrival: Schwechat (LOWW) at 13:50
Route: SIRMI M725 ZAG L187 OBUTI

Weather Information
LDSP 072330Z AUTO 11003KT 010V160 CAVOK 27/14 Q1014
LOWW 072320Z 18005KT CAVOK 18/16 Q1020 NOSIG
Schedule Frequency

Route Map